Time;durP1;ratioP1;P1;durP2;ratioP2;P2;SDS_P1;SDS_P2;PMS_P1;PMS_P2;Temp;Humidity;BMP_temperature;BMP_pressure;BME280_temperature;BME280_humidity;BME280_pressure;Samples;Min_cycle;Max_cycle;Signal;HPM_P1;HPM_P2
2022/05/06 00:01:46;;;;;;;22.47;15.90;;;;;;;12.63;62.21;102065.31;5059648;28;20231;-68
2022/05/06 00:04:14;;;;;;;19.77;15.63;;;;;;;12.58;62.74;102072.19;5059728;28;20169;-67
2022/05/06 00:06:39;;;;;;;19.37;16.20;;;;;;;13.01;61.72;102078.34;5059982;28;20254;-67
2022/05/06 00:09:05;;;;;;;23.67;17.63;;;;;;;12.58;62.98;102077.41;5059370;28;20550;-68
2022/05/06 00:11:31;;;;;;;23.00;17.20;;;;;;;12.53;62.91;102079.03;5059483;28;20220;-67
2022/05/06 00:13:57;;;;;;;23.00;17.90;;;;;;;12.45;62.98;102077.13;5059660;28;20470;-66
2022/05/06 00:16:23;;;;;;;23.33;17.53;;;;;;;12.46;63.50;102073.66;5059567;28;20232;-67
2022/05/06 00:18:49;;;;;;;25.30;18.67;;;;;;;12.47;63.64;102082.38;5059366;28;20408;-67
2022/05/06 00:21:14;;;;;;;26.17;19.03;;;;;;;12.60;63.32;102070.50;5058844;28;20801;-68
2022/05/06 00:23:40;;;;;;;22.10;16.80;;;;;;;12.27;64.15;102071.44;5058919;28;20173;-67
2022/05/06 00:26:05;;;;;;;30.60;20.10;;;;;;;12.28;64.26;102068.88;5059027;28;20182;-68
2022/05/06 00:28:31;;;;;;;25.73;18.03;;;;;;;12.38;63.95;102069.09;5059335;28;20193;-67
2022/05/06 00:30:57;;;;;;;22.00;17.07;;;;;;;12.29;64.10;102069.78;5059111;28;20173;-67
2022/05/06 00:33:24;;;;;;;21.70;16.93;;;;;;;12.24;64.10;102064.41;5058664;28;20199;-68
2022/05/06 00:35:57;;;;;;;23.47;17.60;;;;;;;12.47;63.61;102069.31;5059254;28;20400;-67
2022/05/06 00:38:23;;;;;;;26.63;17.60;;;;;;;12.43;64.00;102065.75;5058736;28;20800;-68
2022/05/06 00:40:48;;;;;;;21.63;17.30;;;;;;;12.10;64.40;102064.09;5058889;28;20442;-68
2022/05/06 00:43:14;;;;;;;23.33;18.70;;;;;;;11.97;64.96;102072.47;5059152;28;20449;-68
2022/05/06 00:45:45;;;;;;;26.07;18.37;;;;;;;12.16;64.05;102067.72;5058654;28;20428;-68
2022/05/06 00:48:11;;;;;;;21.13;16.60;;;;;;;12.22;64.00;102065.25;5058056;28;20220;-67
2022/05/06 00:50:38;;;;;;;27.53;19.23;;;;;;;12.21;64.03;102071.31;5059122;28;20797;-68
2022/05/06 00:53:06;;;;;;;22.57;17.17;;;;;;;12.24;64.00;102071.38;5058424;28;20169;-68
2022/05/06 00:55:33;;;;;;;26.73;19.80;;;;;;;12.10;64.30;102071.94;5058088;28;20489;-68
2022/05/06 00:57:58;;;;;;;23.80;16.97;;;;;;;12.16;64.68;102076.41;5059086;28;20435;-67
2022/05/06 01:00:24;;;;;;;23.37;16.67;;;;;;;11.69;65.54;102071.75;5059236;28;20404;-67
2022/05/06 01:02:49;;;;;;;22.37;17.60;;;;;;;11.56;66.18;102069.63;5059068;28;20197;-69
2022/05/06 01:05:15;;;;;;;21.47;15.63;;;;;;;11.99;65.04;102069.88;5059076;28;20162;-67
2022/05/06 01:07:41;;;;;;;27.00;17.50;;;;;;;11.75;65.59;102077.09;5057612;28;20519;-67
2022/05/06 01:10:06;;;;;;;21.07;15.80;;;;;;;11.87;65.03;102080.91;5058085;28;20198;-68
2022/05/06 01:12:33;;;;;;;19.67;16.17;;;;;;;11.86;64.84;102079.13;5059342;28;20188;-69
2022/05/06 01:14:58;;;;;;;22.77;17.10;;;;;;;12.13;64.55;102076.34;5060426;28;20569;-67
2022/05/06 01:17:24;;;;;;;21.50;17.37;;;;;;;11.91;64.95;102074.91;5058317;28;20405;-67
2022/05/06 01:19:49;;;;;;;21.00;14.90;;;;;;;11.80;64.76;102080.72;5059274;28;20157;-68
2022/05/06 01:22:15;;;;;;;27.53;17.80;;;;;;;11.94;64.92;102069.75;5058287;28;20169;-68
2022/05/06 01:24:40;;;;;;;25.57;16.37;;;;;;;11.89;65.56;102071.34;5057851;28;20555;-67
2022/05/06 01:27:21;;;;;;;25.50;17.40;;;;;;;11.70;65.63;102083.94;5058839;28;20162;-67
2022/05/06 01:29:48;;;;;;;23.07;15.83;;;;;;;11.77;65.87;102074.53;5058226;28;20197;-69
2022/05/06 01:32:13;;;;;;;21.43;15.83;;;;;;;11.97;64.94;102082.91;5058045;28;20722;-67
2022/05/06 01:34:40;;;;;;;24.03;16.73;;;;;;;11.80;65.11;102085.09;5058221;28;20412;-67
2022/05/06 01:37:07;;;;;;;19.10;15.80;;;;;;;11.69;65.87;102090.03;5058328;28;20531;-68
2022/05/06 01:39:34;;;;;;;20.93;15.57;;;;;;;11.62;65.75;102088.06;5057710;28;20412;-67
2022/05/06 01:42:04;;;;;;;20.70;16.00;;;;;;;11.66;66.04;102095.13;5057924;28;20412;-67
2022/05/06 01:44:34;;;;;;;23.90;16.83;;;;;;;11.77;66.13;102091.09;5058138;28;20440;-67
2022/05/06 01:47:03;;;;;;;23.13;17.90;;;;;;;11.75;66.02;102087.56;5057805;28;20456;-68
2022/05/06 01:49:30;;;;;;;25.30;17.93;;;;;;;11.21;67.07;102095.66;5058182;28;20523;-68
2022/05/06 01:51:56;;;;;;;23.97;17.73;;;;;;;11.60;66.61;102098.47;5058636;28;20404;-69
2022/05/06 01:54:21;;;;;;;22.33;16.00;;;;;;;11.51;65.93;102094.75;5057295;28;20416;-69
2022/05/06 01:56:46;;;;;;;26.47;19.17;;;;;;;11.36;66.96;102100.41;5058127;28;20851;-68
2022/05/06 01:59:12;;;;;;;31.03;19.37;;;;;;;11.51;66.46;102093.00;5058522;28;20430;-68
2022/05/06 02:01:37;;;;;;;28.20;19.27;;;;;;;11.42;67.10;102098.88;5057816;28;20169;-69
2022/05/06 02:06:47;;;;;;;23.13;16.83;;;;;;;11.53;66.68;102103.47;5058286;28;20180;-68
2022/05/06 02:09:12;;;;;;;25.03;18.57;;;;;;;11.98;65.77;102108.22;5058250;28;20730;-68
2022/05/06 02:11:38;;;;;;;22.20;18.20;;;;;;;11.59;66.49;102101.94;5062614;28;20176;-68
2022/05/06 02:14:03;;;;;;;26.07;17.23;;;;;;;11.58;66.38;102099.28;5061959;28;20173;-68
2022/05/06 02:16:29;;;;;;;20.73;16.53;;;;;;;11.65;66.47;102101.22;5060959;28;20165;-68
2022/05/06 02:18:54;;;;;;;25.93;16.63;;;;;;;11.82;66.22;102104.28;5062054;28;20165;-68
2022/05/06 02:21:20;;;;;;;27.47;18.80;;;;;;;11.49;66.55;102102.53;5061604;28;20419;-68
2022/05/06 02:23:45;;;;;;;29.83;19.53;;;;;;;11.23;68.35;102101.78;5061737;28;20195;-69
2022/05/06 02:26:10;;;;;;;26.17;18.63;;;;;;;11.28;67.51;102101.09;5062177;28;20536;-66
2022/05/06 02:28:35;;;;;;;23.30;17.83;;;;;;;11.52;67.07;102104.34;5061268;28;20288;-67
2022/05/06 02:33:45;;;;;;;22.77;17.20;;;;;;;11.44;67.71;102109.34;5061390;28;20558;-67
2022/05/06 02:36:11;;;;;;;26.30;20.50;;;;;;;11.58;67.04;102101.88;5061273;28;20416;-68
2022/05/06 02:38:36;;;;;;;28.53;17.97;;;;;;;11.45;67.60;102104.16;5061883;28;20531;-68
2022/05/06 02:41:01;;;;;;;30.17;19.17;;;;;;;11.49;67.31;102099.94;5061379;28;20455;-67
2022/05/06 02:43:27;;;;;;;29.40;19.27;;;;;;;11.56;67.06;102095.75;5061010;28;20166;-67
2022/05/06 02:45:52;;;;;;;29.30;20.00;;;;;;;11.73;66.51;102101.41;5061495;28;20219;-67
2022/05/06 02:48:18;;;;;;;29.80;20.50;;;;;;;11.29;67.92;102092.41;5061027;28;20177;-69
2022/05/06 02:50:43;;;;;;;31.87;20.43;;;;;;;11.41;67.92;102099.69;5061194;28;20176;-66
2022/05/06 02:53:09;;;;;;;35.43;21.23;;;;;;;11.19;68.24;102093.00;5061328;28;20179;-67
2022/05/06 02:55:34;;;;;;;25.57;19.60;;;;;;;11.24;68.40;102090.50;5060941;28;20178;-66
2022/05/06 02:58:00;;;;;;;30.27;19.97;;;;;;;11.33;67.84;102088.16;5060882;28;20177;-66
2022/05/06 03:00:26;;;;;;;30.50;20.43;;;;;;;11.24;68.49;102093.13;5061332;28;20169;-68
2022/05/06 03:02:51;;;;;;;32.03;21.87;;;;;;;10.95;69.59;102086.19;5060658;28;20177;-68
2022/05/06 03:05:17;;;;;;;27.10;19.53;;;;;;;11.32;68.66;102091.59;5060848;28;20416;-68
2022/05/06 03:07:42;;;;;;;32.23;20.47;;;;;;;11.03;69.09;102090.78;5061235;28;20199;-69
2022/05/06 03:10:09;;;;;;;30.27;19.37;;;;;;;11.28;68.65;102089.75;5059996;28;20216;-68
2022/05/06 03:12:34;;;;;;;28.70;19.57;;;;;;;11.44;68.26;102094.56;5060431;28;20256;-68
2022/05/06 03:15:03;;;;;;;32.50;20.93;;;;;;;11.22;68.82;102092.19;5060975;28;20447;-68
2022/05/06 03:17:28;;;;;;;26.67;20.07;;;;;;;11.26;68.50;102094.06;5060710;28;20257;-68
2022/05/06 03:19:54;;;;;;;32.97;20.90;;;;;;;11.15;69.21;102087.63;5060468;28;20780;-68
2022/05/06 03:22:19;;;;;;;34.40;21.87;;;;;;;11.06;69.44;102091.75;5060013;28;20161;-67
2022/05/06 03:24:44;;;;;;;31.57;21.30;;;;;;;11.35;68.53;102093.41;5060339;28;20165;-67
2022/05/06 03:27:59;;;;;;;30.10;20.60;;;;;;;11.52;68.07;102096.50;5060238;28;20445;-67
2022/05/06 03:29:56;;;;;;;31.27;21.17;;;;;;;11.16;69.17;102103.31;5060035;28;20201;-67
2022/05/06 03:32:22;;;;;;;31.80;21.60;;;;;;;10.99;70.02;102091.50;5060155;28;20426;-68
2022/05/06 03:34:50;;;;;;;27.90;19.90;;;;;;;11.29;69.35;102096.75;5059930;28;20173;-68
2022/05/06 03:37:16;;;;;;;32.80;20.30;;;;;;;11.28;69.01;102101.09;5060077;28;20456;-68
2022/05/06 03:39:41;;;;;;;27.70;20.27;;;;;;;11.47;68.56;102096.38;5059301;28;20525;-69
2022/05/06 03:42:06;;;;;;;31.70;20.77;;;;;;;11.25;68.58;102102.72;5060241;28;20173;-67
2022/05/06 03:44:32;;;;;;;34.00;21.80;;;;;;;11.43;67.95;102097.13;5059948;28;20539;-68
2022/05/06 03:46:57;;;;;;;33.10;22.20;;;;;;;11.03;69.41;102096.88;5059889;28;20230;-67
2022/05/06 03:49:22;;;;;;;34.93;20.77;;;;;;;11.15;69.87;102101.56;5060614;28;20204;-69
2022/05/06 03:51:48;;;;;;;28.40;21.70;;;;;;;11.33;68.96;102098.59;5059759;28;20169;-68
2022/05/06 03:54:13;;;;;;;30.03;20.90;;;;;;;11.30;68.03;102101.13;5059805;28;20169;-67
2022/05/06 03:56:39;;;;;;;26.63;19.70;;;;;;;11.55;67.85;102101.81;5060471;28;20436;-68
2022/05/06 03:59:04;;;;;;;29.93;19.50;;;;;;;11.38;68.06;102112.69;5059690;28;20224;-67
2022/05/06 04:01:30;;;;;;;26.30;20.77;;;;;;;11.58;67.62;102096.66;5059621;28;20205;-67
2022/05/06 04:03:55;;;;;;;25.50;18.80;;;;;;;11.14;68.89;102099.81;5060308;28;20256;-68
2022/05/06 04:06:21;;;;;;;23.83;19.67;;;;;;;11.03;68.81;102099.47;5059552;28;20451;-68
2022/05/06 04:08:46;;;;;;;31.10;18.83;;;;;;;11.46;68.06;102107.69;5059398;28;20284;-67
2022/05/06 04:11:12;;;;;;;24.43;18.00;;;;;;;11.32;67.96;102099.44;5059975;28;20195;-67
2022/05/06 04:13:38;;;;;;;31.83;20.50;;;;;;;11.32;68.26;102101.19;5059228;28;20436;-68
2022/05/06 04:16:03;;;;;;;25.10;17.60;;;;;;;10.86;69.82;102105.91;5059456;28;20483;-67
2022/05/06 04:18:29;;;;;;;26.03;20.43;;;;;;;11.23;68.92;102104.38;5059887;28;20240;-67
2022/05/06 04:23:38;;;;;;;25.60;20.30;;;;;;;11.54;67.69;102118.31;5059139;28;20491;-68
2022/05/06 04:26:06;;;;;;;30.10;19.50;;;;;;;11.48;68.11;102112.94;5058968;28;20483;-69
2022/05/06 04:28:32;;;;;;;31.97;20.37;;;;;;;11.93;67.19;102109.78;5066188;28;20193;-69
2022/05/06 04:30:58;;;;;;;35.80;21.00;;;;;;;12.10;66.28;102111.13;5077597;28;20518;-66
2022/05/06 04:33:27;;;;;;;33.70;21.53;;;;;;;12.60;64.76;102113.22;5077084;28;20177;-68
2022/05/06 04:35:53;;;;;;;29.63;19.77;;;;;;;13.11;62.76;102111.75;5073282;28;20439;-66
2022/05/06 04:38:19;;;;;;;30.23;20.10;;;;;;;14.65;58.07;102108.44;5078639;28;20431;-68
2022/05/06 04:40:44;;;;;;;37.47;19.33;;;;;;;15.01;56.78;102102.81;5075649;28;20442;-67
2022/05/06 04:43:10;;;;;;;30.00;19.97;;;;;;;15.59;53.98;102106.09;5058810;28;20459;-66
2022/05/06 04:45:42;;;;;;;30.20;20.70;;;;;;;16.31;51.73;102099.78;5066808;28;20169;-67
2022/05/06 04:48:08;;;;;;;27.80;18.83;;;;;;;16.34;51.88;102102.44;5078441;28;20239;-68
2022/05/06 04:50:34;;;;;;;29.50;19.73;;;;;;;16.21;51.42;102108.47;5078844;28;20481;-67
2022/05/06 04:53:01;;;;;;;31.67;20.17;;;;;;;15.41;53.04;102114.69;5068229;28;20485;-67
2022/05/06 04:55:26;;;;;;;31.17;20.20;;;;;;;15.58;53.62;102120.09;5063409;28;20453;-69
2022/05/06 04:57:52;;;;;;;29.40;19.93;;;;;;;15.29;54.57;102114.53;5070179;28;20181;-66
2022/05/06 05:00:18;;;;;;;35.43;20.13;;;;;;;16.07;51.70;102117.13;5076529;28;20226;-67
2022/05/06 05:02:44;;;;;;;25.67;18.87;;;;;;;16.40;50.95;102112.13;5077772;28;20220;-68
2022/05/06 05:05:09;;;;;;;26.13;19.53;;;;;;;17.96;47.38;102104.94;5077887;28;20417;-68
2022/05/06 05:07:34;;;;;;;27.73;19.63;;;;;;;16.77;49.81;102100.09;5078501;28;20834;-67
2022/05/06 05:10:00;;;;;;;27.63;20.10;;;;;;;17.16;49.42;102110.84;5077832;28;20287;-68
2022/05/06 05:12:25;;;;;;;28.00;19.93;;;;;;;16.14;51.07;102112.78;5077020;28;20252;-68
2022/05/06 05:14:51;;;;;;;24.20;19.23;;;;;;;15.15;53.79;102115.25;5077586;28;20185;-67
2022/05/06 05:17:16;;;;;;;31.43;20.93;;;;;;;15.07;54.50;102119.53;5077621;28;20195;-68
2022/05/06 05:19:42;;;;;;;22.87;16.23;;;;;;;16.29;55.97;102112.94;5077642;28;20405;-69
2022/05/06 05:22:07;;;;;;;10.33;9.10;;;;;;;20.71;43.17;102098.34;5077549;28;20185;-69
2022/05/06 05:24:33;;;;;;;24.80;18.20;;;;;;;18.41;45.11;102108.44;5078171;28;20173;-70
2022/05/06 05:26:58;;;;;;;22.97;20.57;;;;;;;18.45;46.55;102110.19;5076982;28;20193;-70
2022/05/06 05:29:24;;;;;;;24.47;20.87;;;;;;;18.18;46.02;102106.72;5076914;28;20518;-72
2022/05/06 05:31:50;;;;;;;25.40;19.30;;;;;;;16.97;49.01;102118.66;5077025;28;20195;-70
2022/05/06 05:34:16;;;;;;;25.40;20.23;;;;;;;17.57;48.13;102117.16;5076492;28;20185;-70
2022/05/06 05:36:41;;;;;;;24.30;20.20;;;;;;;18.37;45.83;102117.25;5066801;28;20398;-70
2022/05/06 05:39:07;;;;;;;22.20;19.73;;;;;;;18.89;44.76;102103.09;5069127;28;20189;-69
2022/05/06 05:41:33;;;;;;;32.73;21.30;;;;;;;19.10;43.69;102110.03;5070752;28;20208;-69
2022/05/06 05:49:27;;;;;;;20.93;18.93;;;;;;;19.83;43.24;102107.91;5057693;28;20510;-69
2022/05/06 05:51:52;;;;;;;22.53;19.57;;;;;;;18.88;44.88;102109.25;5057695;28;20412;-69
2022/05/06 05:54:17;;;;;;;22.90;20.47;;;;;;;19.54;43.41;102116.03;5058079;28;20259;-68
2022/05/06 05:56:43;;;;;;;22.83;19.57;;;;;;;21.91;38.33;102100.31;5058186;28;20169;-68
2022/05/06 05:59:08;;;;;;;21.57;18.70;;;;;;;20.03;42.15;102110.41;5057669;28;20416;-68
2022/05/06 06:01:33;;;;;;;23.77;18.87;;;;;;;20.47;40.57;102110.94;5071706;28;20453;-69
2022/05/06 06:03:59;;;;;;;22.10;19.90;;;;;;;20.15;41.76;102112.09;5074422;28;20653;-68
2022/05/06 06:06:24;;;;;;;21.37;19.20;;;;;;;20.27;42.15;102108.47;5065322;28;20207;-69
2022/05/06 06:08:49;;;;;;;22.17;19.87;;;;;;;20.07;42.43;102100.69;5075881;28;20220;-69
2022/05/06 06:11:15;;;;;;;22.10;19.73;;;;;;;20.74;41.62;102103.59;5065142;28;20178;-69
2022/05/06 06:13:40;;;;;;;19.97;18.07;;;;;;;21.80;39.35;102098.69;5066546;28;20195;-69
2022/05/06 06:16:06;;;;;;;22.57;19.60;;;;;;;22.67;37.60;102099.88;5074437;28;20260;-69
2022/05/06 06:18:31;;;;;;;20.13;18.03;;;;;;;21.03;41.09;102113.00;5069376;28;20189;-68
2022/05/06 06:20:57;;;;;;;27.67;20.77;;;;;;;21.66;40.24;102106.00;5077640;28;20188;-69
2022/05/06 06:23:23;;;;;;;21.60;19.53;;;;;;;21.08;40.51;102105.88;5075094;28;20524;-69
2022/05/06 06:25:48;;;;;;;23.40;19.97;;;;;;;20.62;41.48;102112.53;5078171;28;20161;-69
2022/05/06 06:28:14;;;;;;;24.17;21.70;;;;;;;22.64;37.36;102102.63;5077300;28;20530;-70
2022/05/06 06:30:40;;;;;;;24.27;21.30;;;;;;;21.41;39.94;102105.44;5075721;28;20602;-72
2022/05/06 06:33:07;;;;;;;22.80;20.60;;;;;;;22.62;37.60;102099.09;5075619;28;20180;-73
2022/05/06 06:35:32;;;;;;;23.20;20.73;;;;;;;20.64;40.78;102109.88;5069642;28;20711;-70
2022/05/06 06:37:58;;;;;;;23.13;20.63;;;;;;;22.25;38.21;102100.63;5065324;28;20431;-70
2022/05/06 06:40:24;;;;;;;27.50;23.10;;;;;;;20.76;40.69;102107.13;5074628;28;20172;-70
2022/05/06 06:42:49;;;;;;;24.43;21.87;;;;;;;21.03;40.57;102110.34;5075702;28;20181;-70
2022/05/06 06:45:14;;;;;;;24.13;21.83;;;;;;;21.85;39.24;102102.16;5074503;28;20269;-71
2022/05/06 06:47:40;;;;;;;22.87;20.67;;;;;;;21.26;39.61;102112.72;5068536;28;20228;-70
2022/05/06 06:50:06;;;;;;;30.80;21.87;;;;;;;21.16;39.83;102117.25;5077191;28;20221;-72
2022/05/06 06:52:31;;;;;;;21.43;19.30;;;;;;;22.46;37.49;102109.13;5077335;28;20173;-71
2022/05/06 06:54:57;;;;;;;22.43;20.03;;;;;;;22.48;37.85;102108.19;5077057;28;20422;-71
2022/05/06 06:57:23;;;;;;;22.73;20.37;;;;;;;22.46;37.46;102107.38;5070945;28;20200;-70
2022/05/06 06:59:48;;;;;;;22.83;20.20;;;;;;;21.81;38.31;102110.19;5072515;28;20217;-71
2022/05/06 07:02:13;;;;;;;23.10;20.80;;;;;;;22.64;37.46;102105.28;5077205;28;20435;-71
2022/05/06 07:04:39;;;;;;;24.77;21.50;;;;;;;21.55;39.17;102116.75;5065821;28;20179;-71
2022/05/06 07:12:32;;;;;;;21.57;19.43;;;;;;;22.16;38.10;102109.63;5060355;28;20414;-70
2022/05/06 07:14:57;;;;;;;20.63;18.73;;;;;;;22.87;36.17;102116.31;5060410;28;20412;-70
2022/05/06 07:17:23;;;;;;;20.50;18.53;;;;;;;22.95;36.41;102115.28;5060309;28;20170;-69
2022/05/06 07:19:49;;;;;;;20.80;18.77;;;;;;;22.23;37.54;102109.50;5060590;28;20493;-69
2022/05/06 07:22:14;;;;;;;22.40;19.00;;;;;;;23.64;36.01;102112.97;5060067;28;20213;-70
2022/05/06 07:24:39;;;;;;;19.80;17.87;;;;;;;23.31;36.07;102115.44;5060218;28;20178;-70
2022/05/06 07:27:07;;;;;;;24.07;18.30;;;;;;;22.65;36.95;102118.53;5060743;28;20162;-70
2022/05/06 07:29:32;;;;;;;20.67;18.57;;;;;;;23.79;34.39;102112.59;5060174;28;20197;-70
2022/05/06 07:31:57;;;;;;;20.73;18.70;;;;;;;23.11;35.37;102108.75;5060113;28;20517;-70
2022/05/06 07:34:22;;;;;;;19.63;17.60;;;;;;;23.13;35.68;102109.63;5060342;28;20219;-70
2022/05/06 07:36:48;;;;;;;18.77;16.87;;;;;;;24.50;33.44;102113.47;5059837;28;20491;-69
2022/05/06 07:39:15;;;;;;;17.83;16.13;;;;;;;25.68;31.94;102097.63;5060266;28;20169;-70
2022/05/06 07:41:41;;;;;;;16.93;15.40;;;;;;;24.19;33.61;102100.97;5060697;28;20161;-71
2022/05/06 07:44:07;;;;;;;17.23;15.63;;;;;;;25.79;31.66;102099.94;5059842;28;20465;-70
2022/05/06 07:46:33;;;;;;;17.43;15.47;;;;;;;23.05;34.56;102107.06;5058833;28;20489;-71
2022/05/06 07:48:58;;;;;;;15.97;14.67;;;;;;;22.64;35.62;102107.94;5060107;28;20440;-70
2022/05/06 07:51:24;;;;;;;16.77;15.27;;;;;;;23.44;34.77;102105.44;5059684;28;20691;-70
2022/05/06 07:53:52;;;;;;;16.27;14.70;;;;;;;25.38;32.26;102105.69;5067568;28;20177;-73
2022/05/06 07:56:19;;;;;;;15.33;13.73;;;;;;;24.73;32.57;102105.81;5080119;28;20169;-70
2022/05/06 07:58:45;;;;;;;14.10;12.80;;;;;;;23.21;35.07;102115.66;5079873;28;20415;-70
2022/05/06 08:01:12;;;;;;;15.07;12.60;;;;;;;23.87;34.36;102102.63;5059979;28;20424;-71
2022/05/06 08:06:21;;;;;;;15.30;13.90;;;;;;;25.76;32.28;102107.19;5079399;28;20463;-69
2022/05/06 08:08:47;;;;;;;15.93;14.33;;;;;;;25.16;32.85;102102.75;5078941;28;20416;-69
2022/05/06 08:11:12;;;;;;;14.87;13.47;;;;;;;25.74;31.43;102099.22;5079431;28;20177;-70
2022/05/06 08:13:38;;;;;;;16.50;14.90;;;;;;;24.49;33.51;102114.41;5079323;28;20855;-70
2022/05/06 08:16:03;;;;;;;16.30;14.70;;;;;;;25.82;32.01;102099.84;5071303;28;20205;-71
2022/05/06 08:18:29;;;;;;;15.63;14.10;;;;;;;24.12;34.18;102110.03;5067451;28;20260;-70
2022/05/06 08:20:54;;;;;;;16.40;14.70;;;;;;;24.54;33.74;102112.50;5069316;28;20184;-71
2022/05/06 08:23:22;;;;;;;14.10;12.80;;;;;;;23.84;34.03;102107.13;5079118;28;20227;-71
2022/05/06 08:25:48;;;;;;;15.50;14.00;;;;;;;25.43;32.10;102105.53;5080025;28;20196;-71
2022/05/06 08:28:14;;;;;;;15.63;14.27;;;;;;;26.46;31.04;102100.41;5081585;28;20461;-69
2022/05/06 08:30:39;;;;;;;14.30;12.90;;;;;;;25.46;32.30;102107.25;5079748;28;20538;-70
2022/05/06 08:33:05;;;;;;;14.80;13.37;;;;;;;24.99;32.45;102107.72;5079021;28;20177;-70
2022/05/06 08:35:30;;;;;;;16.43;14.83;;;;;;;25.62;32.17;102102.28;5078913;28;20423;-70
2022/05/06 08:37:57;;;;;;;15.47;13.67;;;;;;;25.82;31.17;102099.84;5079129;28;20181;-71
2022/05/06 08:40:31;;;;;;;16.20;12.80;;;;;;;26.30;30.99;102100.91;5078877;28;20180;-70
2022/05/06 08:42:57;;;;;;;14.97;13.47;;;;;;;25.30;32.31;102097.00;5078787;28;20661;-71
2022/05/06 08:50:56;;;;;;;10.77;9.70;;;;;;;26.04;30.30;102101.81;5078461;28;20520;-71
2022/05/06 08:53:26;;;;;;;11.33;10.33;;;;;;;25.39;31.51;102106.56;5078578;28;20485;-69
2022/05/06 08:55:53;;;;;;;11.10;10.20;;;;;;;25.99;31.19;102098.41;5077152;28;20510;-71
2022/05/06 08:58:18;;;;;;;12.70;11.40;;;;;;;27.26;29.25;102096.56;5075143;28;20423;-71
2022/05/06 09:00:44;;;;;;;11.43;10.53;;;;;;;27.10;29.52;102094.47;5070057;28;20749;-74
2022/05/06 09:03:10;;;;;;;12.93;11.70;;;;;;;24.64;32.39;102101.59;5071733;28;20434;-75
2022/05/06 09:05:53;;;;;;;12.27;11.07;;;;;;;26.26;30.85;102088.59;5071462;28;20261;-75
2022/05/06 09:08:21;;;;;;;11.43;10.40;;;;;;;26.87;29.49;102088.22;5074148;28;20598;-74
2022/05/06 09:11:03;;;;;;;12.47;11.17;;;;;;;26.57;29.78;102087.50;5075112;28;20480;-74
2022/05/06 09:13:29;;;;;;;12.43;10.60;;;;;;;26.53;29.79;102086.75;5071906;28;20850;-70
2022/05/06 09:19:22;;;;;;;12.03;11.03;;;;;;;27.25;29.40;102090.31;5074434;28;20188;-72
2022/05/06 09:22:17;;;;;;;11.93;10.63;;;;;;;26.03;30.55;102095.63;5074649;28;20453;-70
2022/05/06 09:24:50;;;;;;;12.17;10.97;;;;;;;26.10;30.32;102096.28;5069464;28;20687;-69
2022/05/06 09:27:17;;;;;;;11.50;10.43;;;;;;;25.58;31.07;102092.63;5066436;28;20433;-70
2022/05/06 09:29:45;;;;;;;12.17;10.33;;;;;;;26.76;29.53;102085.03;5077629;28;20459;-72
2022/05/06 09:32:24;;;;;;;12.57;11.40;;;;;;;27.46;29.09;102088.63;5073512;28;20439;-72
2022/05/06 09:34:52;;;;;;;12.17;11.07;;;;;;;26.60;29.96;102092.72;5077069;28;20418;-71
2022/05/06 09:37:33;;;;;;;11.00;10.00;;;;;;;26.73;30.11;102086.03;5077268;28;20438;-69
2022/05/06 09:40:13;;;;;;;11.93;10.20;;;;;;;27.94;28.12;102089.38;5077426;28;20427;-70
2022/05/06 09:43:00;;;;;;;12.20;10.90;;;;;;;26.80;29.79;102091.16;5063820;28;20717;-71
2022/05/06 09:45:39;;;;;;;14.00;11.17;;;;;;;26.56;29.41;102091.97;5058425;28;20436;-69
2022/05/06 09:48:06;;;;;;;11.60;10.53;;;;;;;27.61;28.95;102084.47;5058736;28;20467;-70
2022/05/06 09:50:33;;;;;;;12.77;11.47;;;;;;;28.70;27.64;102084.31;5066363;28;20729;-71
2022/05/06 09:53:00;;;;;;;12.77;11.47;;;;;;;26.62;30.04;102095.38;5077389;28;20457;-70
2022/05/06 09:55:26;;;;;;;13.40;12.20;;;;;;;26.88;29.40;102092.59;5067762;28;20429;-70
2022/05/06 09:57:52;;;;;;;11.90;10.83;;;;;;;26.85;29.05;102087.38;5067804;28;20525;-71
2022/05/06 10:00:17;;;;;;;12.90;11.80;;;;;;;25.65;31.49;102088.84;5074981;28;20509;-71
2022/05/06 10:02:42;;;;;;;14.50;13.10;;;;;;;26.83;30.04;102089.25;5058012;28;20219;-71
2022/05/06 10:05:08;;;;;;;14.13;12.83;;;;;;;27.67;29.22;102075.28;5058096;28;20441;-71
2022/05/06 10:07:34;;;;;;;13.70;12.40;;;;;;;27.39;29.69;102082.66;5076618;28;20180;-72
2022/05/06 10:10:06;;;;;;;19.00;11.70;;;;;;;27.96;28.34;102075.91;5077715;28;20196;-72
2022/05/06 10:12:37;;;;;;;13.33;12.03;;;;;;;29.77;26.32;102068.50;5076319;28;20189;-71
2022/05/06 10:15:08;;;;;;;13.07;11.83;;;;;;;28.56;27.59;102074.19;5076288;28;20686;-71
2022/05/06 10:17:54;;;;;;;14.40;12.90;;;;;;;26.97;28.89;102072.66;5060823;28;20430;-71
2022/05/06 10:20:34;;;;;;;15.53;12.60;;;;;;;28.35;28.50;102061.72;5076747;28;20427;-72
2022/05/06 10:23:01;;;;;;;12.53;11.43;;;;;;;26.23;31.07;102065.50;5077514;28;20434;-72
2022/05/06 10:25:42;;;;;;;14.60;13.20;;;;;;;26.96;30.17;102070.06;5062532;28;20423;-75
2022/05/06 10:34:07;;;;;;;13.20;12.00;;;;;;;26.88;29.80;102060.50;5078885;28;20421;-71
2022/05/06 10:36:53;;;;;;;12.67;11.60;;;;;;;26.04;32.05;102057.25;5079782;28;20438;-71
2022/05/06 10:39:18;;;;;;;12.93;11.73;;;;;;;28.11;28.63;102048.44;5080698;28;20434;-72
2022/05/06 10:42:11;;;;;;;12.90;11.00;;;;;;;27.93;28.65;102046.53;5081168;28;20423;-71
2022/05/06 10:44:39;;;;;;;12.17;11.07;;;;;;;26.04;31.00;102051.06;5081118;28;20185;-70
2022/05/06 10:47:11;;;;;;;12.80;11.60;;;;;;;26.45;30.54;102046.00;5081120;28;20463;-72
2022/05/06 10:49:39;;;;;;;12.07;10.90;;;;;;;25.80;31.57;102044.72;5081288;28;20486;-71
2022/05/06 10:52:26;;;;;;;12.57;11.43;;;;;;;25.85;31.14;102043.63;5081237;28;20423;-71
2022/05/06 10:54:58;;;;;;;12.17;10.87;;;;;;;26.02;31.60;102039.50;5081431;28;20403;-71
2022/05/06 10:57:25;;;;;;;13.30;12.00;;;;;;;26.89;29.40;102037.31;5081643;28;20411;-72
2022/05/06 10:59:51;;;;;;;10.90;10.00;;;;;;;27.00;29.53;102036.88;5081031;28;20438;-71
2022/05/06 11:02:16;;;;;;;11.50;10.40;;;;;;;24.90;32.58;102047.50;5081117;28;20419;-71
2022/05/06 11:04:49;;;;;;;13.60;12.30;;;;;;;26.00;31.16;102033.34;5061769;28;20268;-71
2022/05/06 11:07:17;;;;;;;13.07;11.80;;;;;;;26.09;31.07;102038.41;5061268;28;20265;-71
2022/05/06 11:09:42;;;;;;;11.63;10.53;;;;;;;25.52;31.94;102022.47;5065961;28;20470;-72
2022/05/06 11:12:08;;;;;;;13.20;12.10;;;;;;;27.02;29.73;102029.66;5080052;28;20492;-71
2022/05/06 11:14:33;;;;;;;13.83;12.50;;;;;;;25.39;31.93;102026.47;5081008;28;20200;-71
2022/05/06 11:17:15;;;;;;;14.43;12.33;;;;;;;25.16;32.44;102030.69;5080960;28;20185;-74
2022/05/06 11:19:40;;;;;;;13.60;12.23;;;;;;;24.91;33.02;102040.38;5067871;28;20424;-73
2022/05/06 11:22:09;;;;;;;12.57;10.80;;;;;;;24.82;32.76;102029.06;5076552;28;20536;-73
2022/05/06 11:24:34;;;;;;;14.33;12.00;;;;;;;25.38;31.66;102025.59;5079642;28;20200;-72
2022/05/06 11:27:17;;;;;;;11.70;10.60;;;;;;;24.32;33.74;102024.22;5063295;28;20547;-71
2022/05/06 11:29:51;;;;;;;15.77;11.70;;;;;;;25.11;32.50;102021.94;5077058;28;20197;-71
2022/05/06 11:32:17;;;;;;;10.73;9.40;;;;;;;25.44;31.31;102020.97;5074142;28;20430;-70
2022/05/06 11:34:57;;;;;;;12.40;11.20;;;;;;;25.68;31.39;102016.59;5079589;28;20422;-70
2022/05/06 11:37:24;;;;;;;11.53;10.43;;;;;;;24.95;32.63;102018.00;5070138;28;20184;-71
2022/05/06 11:39:50;;;;;;;12.77;10.50;;;;;;;24.85;32.73;102018.28;5077963;28;20450;-71
2022/05/06 11:42:20;;;;;;;12.70;11.50;;;;;;;25.27;32.00;102010.81;5069367;28;20438;-74
2022/05/06 11:47:42;;;;;;;11.10;10.13;;;;;;;25.12;32.29;101997.03;5069085;28;20521;-74
2022/05/06 11:50:08;;;;;;;11.83;10.77;;;;;;;25.02;32.08;102004.44;5074763;28;20467;-73